Time;durP1;ratioP1;P1;durP2;ratioP2;P2;SDS_P1;SDS_P2;PMS_P1;PMS_P2;Temp;Humidity;BMP_temperature;BMP_pressure;BME280_temperature;BME280_humidity;BME280_pressure;Samples;Min_cycle;Max_cycle;Signal;HPM_P1;HPM_P2
2022/08/05 00:01:00;;;;;;;6.35;3.25;;;19.00;99.90;;;;;;4966436;28;20386;-86
2022/08/05 00:03:26;;;;;;;7.32;3.72;;;18.90;99.90;;;;;;4948622;28;20054;-86
2022/08/05 00:05:53;;;;;;;7.35;2.90;;;18.90;99.90;;;;;;4964278;28;20535;-86
2022/08/05 00:08:19;;;;;;;8.38;3.10;;;18.90;99.90;;;;;;4930552;28;20089;-86
2022/08/05 00:10:45;;;;;;;6.88;2.90;;;18.90;99.90;;;;;;4949716;28;20042;-86
2022/08/05 00:13:11;;;;;;;6.68;3.00;;;18.90;99.90;;;;;;4963708;28;20125;-86
2022/08/05 00:15:37;;;;;;;5.35;2.88;;;18.90;99.90;;;;;;4961687;28;20050;-86
2022/08/05 00:18:03;;;;;;;8.70;3.47;;;18.90;99.90;;;;;;4980818;28;20051;-86
2022/08/05 00:20:30;;;;;;;8.00;3.72;;;18.80;99.90;;;;;;4976981;28;20455;-86
2022/08/05 00:22:55;;;;;;;5.97;2.67;;;18.80;99.90;;;;;;4994344;28;20526;-86
2022/08/05 00:25:22;;;;;;;6.82;3.63;;;18.70;99.90;;;;;;4901435;28;20133;-87
2022/08/05 00:27:48;;;;;;;7.32;2.65;;;18.80;99.90;;;;;;4984082;28;20234;-87
2022/08/05 00:30:14;;;;;;;8.57;3.30;;;18.80;99.90;;;;;;4965541;28;20038;-87
2022/08/05 00:32:40;;;;;;;6.90;3.22;;;18.80;99.90;;;;;;4965005;28;20120;-85
2022/08/05 00:35:07;;;;;;;8.35;3.22;;;18.70;99.90;;;;;;4960952;28;20541;-84
2022/08/05 00:37:33;;;;;;;6.88;3.58;;;18.80;99.90;;;;;;4962812;28;20054;-85
2022/08/05 00:39:59;;;;;;;7.13;3.50;;;18.80;99.90;;;;;;4962645;28;20046;-85
2022/08/05 00:42:36;;;;;;;6.10;3.15;;;18.80;99.90;;;;;;4931558;28;20042;-87
2022/08/05 00:45:04;;;;;;;8.77;3.85;;;18.80;99.90;;;;;;4987942;28;20043;-84
2022/08/05 00:47:30;;;;;;;8.43;3.65;;;18.80;99.90;;;;;;4995994;28;20368;-86
2022/08/05 00:49:56;;;;;;;7.88;3.45;;;18.80;99.90;;;;;;4956522;28;20100;-86
2022/08/05 00:52:22;;;;;;;7.75;3.50;;;18.80;99.90;;;;;;4983376;28;20054;-84
2022/08/05 00:54:48;;;;;;;7.10;3.40;;;18.80;99.90;;;;;;4948162;28;20042;-87
2022/08/05 00:57:18;;;;;;;7.18;3.03;;;18.80;99.90;;;;;;4960403;28;20155;-86
2022/08/05 00:59:44;;;;;;;6.65;3.40;;;18.80;99.90;;;;;;4952164;28;20049;-86
2022/08/05 01:02:10;;;;;;;7.07;3.30;;;18.80;99.90;;;;;;4948682;28;20054;-86
2022/08/05 01:04:36;;;;;;;8.80;3.22;;;18.80;99.90;;;;;;4967868;28;20054;-86
2022/08/05 01:07:03;;;;;;;9.75;3.65;;;18.70;99.90;;;;;;4947049;28;20108;-85
2022/08/05 01:09:29;;;;;;;6.97;2.95;;;18.80;99.90;;;;;;4950214;28;20046;-85
2022/08/05 01:12:01;;;;;;;6.65;3.65;;;18.80;99.90;;;;;;4964757;28;20540;-85
2022/08/05 01:14:37;;;;;;;6.85;2.97;;;18.80;99.90;;;;;;4949559;28;20720;-85
2022/08/05 01:17:05;;;;;;;4.53;2.78;;;18.80;99.90;;;;;;4982938;28;20388;-86
2022/08/05 01:19:38;;;;;;;7.25;3.00;;;18.80;99.90;;;;;;4962763;28;20080;-85
2022/08/05 01:22:07;;;;;;;7.15;3.75;;;18.80;99.90;;;;;;4966718;28;20580;-85
2022/08/05 01:24:53;;;;;;;7.70;2.95;;;18.80;99.90;;;;;;4949845;28;20503;-86
2022/08/05 01:27:41;;;;;;;8.07;3.05;;;18.80;99.90;;;;;;4981656;28;20050;-86
2022/08/05 01:30:08;;;;;;;9.13;2.83;;;18.80;99.90;;;;;;4964636;28;20047;-86
2022/08/05 01:32:37;;;;;;;7.13;3.22;;;18.80;99.90;;;;;;4948624;28;20053;-85
2022/08/05 01:35:16;;;;;;;4.85;2.47;;;18.70;99.90;;;;;;4966180;28;20464;-84
2022/08/05 01:37:48;;;;;;;6.97;2.80;;;18.70;99.90;;;;;;4980350;28;20837;-85
2022/08/05 01:40:17;;;;;;;7.63;3.15;;;18.70;99.90;;;;;;4967512;28;20791;-85
2022/08/05 01:42:48;;;;;;;8.32;2.95;;;18.60;99.90;;;;;;4931677;28;20043;-86
2022/08/05 01:45:19;;;;;;;7.97;3.30;;;18.60;99.90;;;;;;4948455;28;20054;-85
2022/08/05 01:47:48;;;;;;;10.68;3.75;;;18.70;99.90;;;;;;4976111;28;20720;-86
2022/08/05 01:50:23;;;;;;;7.25;3.17;;;18.70;99.90;;;;;;4965912;28;20133;-86
2022/08/05 01:52:52;;;;;;;7.18;3.28;;;18.60;99.90;;;;;;4959237;28;20050;-87
2022/08/05 01:55:22;;;;;;;10.52;3.45;;;18.70;99.90;;;;;;4946593;28;20046;-86
2022/08/05 01:57:51;;;;;;;8.70;3.30;;;18.60;99.90;;;;;;4997462;28;20050;-86
2022/08/05 02:00:18;;;;;;;6.13;3.00;;;18.60;99.90;;;;;;4978109;28;20109;-87
2022/08/05 02:02:53;;;;;;;7.43;3.05;;;18.60;99.90;;;;;;4950709;28;20050;-86
2022/08/05 02:05:21;;;;;;;8.95;3.53;;;18.60;99.90;;;;;;4963751;28;20139;-85
2022/08/05 02:07:47;;;;;;;5.72;3.38;;;18.60;99.90;;;;;;4981383;28;20105;-85
2022/08/05 02:10:13;;;;;;;7.50;3.33;;;18.60;99.90;;;;;;4932794;28;20078;-85
2022/08/05 02:12:52;;;;;;;7.03;3.25;;;18.60;99.90;;;;;;4917839;28;20045;-85
2022/08/05 02:15:33;;;;;;;8.90;3.05;;;18.70;99.90;;;;;;4998026;28;20042;-86
2022/08/05 02:18:13;;;;;;;7.22;2.80;;;18.60;99.90;;;;;;4933072;28;20177;-86
2022/08/05 02:21:03;;;;;;;6.50;2.67;;;18.60;99.90;;;;;;4978613;28;20073;-86
2022/08/05 02:23:35;;;;;;;6.80;3.30;;;18.60;99.90;;;;;;4963455;28;20050;-86
2022/08/05 02:26:05;;;;;;;5.95;3.15;;;18.60;99.90;;;;;;4965623;28;20522;-86
2022/08/05 02:28:35;;;;;;;6.30;2.90;;;18.70;99.90;;;;;;4980838;28;20631;-86
2022/08/05 02:31:08;;;;;;;5.45;2.92;;;18.60;99.90;;;;;;4980553;28;20042;-86
2022/08/05 02:33:40;;;;;;;6.80;3.00;;;18.60;99.90;;;;;;4950499;28;20491;-86
2022/08/05 02:36:12;;;;;;;6.60;3.22;;;18.60;99.90;;;;;;4950125;28;20046;-86
2022/08/05 02:38:39;;;;;;;;;;;18.60;99.90;;;;;;4978006;28;20054;-85
2022/08/05 02:41:08;;;;;;;6.47;3.13;;;18.50;99.90;;;;;;4977261;28;20036;-86
2022/08/05 02:43:37;;;;;;;8.55;3.55;;;18.50;99.90;;;;;;4964972;28;20046;-86
2022/08/05 02:46:04;;;;;;;6.88;3.53;;;18.50;99.90;;;;;;4980112;28;20051;-86
2022/08/05 02:48:32;;;;;;;7.03;3.50;;;18.50;99.90;;;;;;4947719;28;20053;-85
2022/08/05 02:51:00;;;;;;;4.95;3.50;;;18.50;99.90;;;;;;4985927;28;20042;-85
2022/08/05 02:53:29;;;;;;;7.43;3.80;;;18.40;99.90;;;;;;4979084;28;20050;-86
2022/08/05 02:55:56;;;;;;;8.57;4.40;;;18.40;99.90;;;;;;4992604;28;20121;-85
2022/08/05 02:58:24;;;;;;;9.35;3.67;;;18.30;99.90;;;;;;4964348;28;20061;-86
2022/08/05 03:00:53;;;;;;;9.63;4.43;;;18.40;99.90;;;;;;4949302;28;20042;-86
2022/08/05 03:03:20;;;;;;;7.78;3.75;;;18.30;99.90;;;;;;4996123;28;20505;-86
2022/08/05 03:05:48;;;;;;;8.82;4.38;;;18.40;99.90;;;;;;4932292;28;20056;-86
2022/08/05 03:08:15;;;;;;;8.50;4.25;;;18.40;99.90;;;;;;4945003;28;20065;-85
2022/08/05 03:10:43;;;;;;;7.80;3.95;;;18.30;99.90;;;;;;4982113;28;20052;-85
2022/08/05 03:13:21;;;;;;;8.63;4.18;;;18.30;99.90;;;;;;4979868;28;20178;-85
2022/08/05 03:15:47;;;;;;;8.98;4.10;;;18.30;99.90;;;;;;4982699;28;20855;-87
2022/08/05 03:18:16;;;;;;;9.43;4.55;;;18.30;99.90;;;;;;4982004;28;20519;-85
2022/08/05 03:20:42;;;;;;;7.05;3.92;;;18.30;99.90;;;;;;4982496;28;20050;-86
2022/08/05 03:23:10;;;;;;;8.07;4.00;;;18.30;99.90;;;;;;4964560;28;20050;-85
2022/08/05 03:25:37;;;;;;;7.65;4.03;;;18.30;99.90;;;;;;4973303;28;20050;-85
2022/08/05 03:28:06;;;;;;;6.32;3.83;;;18.30;99.90;;;;;;4968548;28;20578;-86
2022/08/05 03:30:33;;;;;;;7.47;4.40;;;18.30;99.90;;;;;;4975023;28;20112;-86
2022/08/05 03:33:01;;;;;;;6.07;3.42;;;18.30;99.90;;;;;;4964947;28;20038;-86
2022/08/05 03:35:28;;;;;;;8.73;4.63;;;18.20;99.90;;;;;;4995315;28;20051;-86
2022/08/05 03:37:59;;;;;;;7.70;4.45;;;18.20;99.90;;;;;;4982894;28;20058;-87
2022/08/05 03:40:25;;;;;;;9.60;5.30;;;18.20;99.90;;;;;;4989231;28;20047;-86
2022/08/05 03:42:52;;;;;;;6.07;3.90;;;18.20;99.90;;;;;;4980977;28;20049;-87
2022/08/05 03:45:18;;;;;;;6.95;4.32;;;18.20;99.90;;;;;;4987127;28;20056;-86
2022/08/05 03:47:45;;;;;;;7.75;4.40;;;18.20;99.90;;;;;;4996636;28;20058;-87
2022/08/05 03:50:11;;;;;;;7.97;4.22;;;18.20;99.90;;;;;;4984090;28;20128;-86
2022/08/05 03:53:04;;;;;;;7.03;4.25;;;18.20;99.90;;;;;;4983282;28;20124;-86
2022/08/05 03:55:36;;;;;;;5.32;3.97;;;18.20;99.90;;;;;;4980449;28;20093;-86
2022/08/05 03:58:04;;;;;;;7.43;3.88;;;18.10;99.90;;;;;;4987612;28;20086;-86
2022/08/05 04:00:31;;;;;;;7.22;4.00;;;18.10;99.90;;;;;;4979255;28;20058;-86
2022/08/05 04:03:01;;;;;;;9.95;4.35;;;18.10;99.90;;;;;;4985175;28;20146;-84
2022/08/05 04:05:31;;;;;;;5.00;3.47;;;18.10;99.90;;;;;;4966370;28;20042;-85
2022/08/05 04:07:58;;;;;;;9.80;3.88;;;18.10;99.90;;;;;;4997971;28;20062;-86
2022/08/05 04:10:27;;;;;;;7.03;4.07;;;18.10;99.90;;;;;;4951976;28;20038;-86
2022/08/05 04:12:55;;;;;;;8.15;4.47;;;18.10;99.90;;;;;;4968054;28;20053;-85
2022/08/05 04:15:21;;;;;;;7.18;4.00;;;18.00;99.90;;;;;;4978354;28;20161;-85
2022/08/05 04:17:47;;;;;;;8.93;4.50;;;18.00;99.90;;;;;;4947758;28;20057;-86
2022/08/05 04:20:22;;;;;;;8.00;5.00;;;18.00;99.90;;;;;;4981413;28;20129;-86
2022/08/05 04:22:48;;;;;;;7.88;5.07;;;17.90;99.90;;;;;;4950321;28;20049;-84
2022/08/05 04:25:18;;;;;;;7.55;4.57;;;17.90;99.90;;;;;;5005356;28;20058;-83
2022/08/05 04:27:47;;;;;;;8.75;4.57;;;17.90;99.90;;;;;;4997558;28;20053;-83
2022/08/05 04:30:13;;;;;;;6.80;4.47;;;17.90;99.90;;;;;;4988533;28;20042;-84
2022/08/05 04:32:40;;;;;;;8.07;4.50;;;17.90;99.90;;;;;;4954474;28;20065;-84
2022/08/05 04:35:07;;;;;;;8.95;4.50;;;18.00;99.90;;;;;;4962843;28;20502;-85
2022/08/05 04:37:33;;;;;;;7.00;4.38;;;17.90;99.90;;;;;;5008808;28;20050;-84
2022/08/05 04:39:59;;;;;;;7.85;4.65;;;18.00;99.90;;;;;;4975484;28;20042;-83
2022/08/05 04:42:25;;;;;;;6.03;4.40;;;17.90;99.90;;;;;;4978365;28;20521;-83
2022/08/05 04:44:51;;;;;;;7.55;4.25;;;18.00;99.90;;;;;;4937547;28;20043;-83
2022/08/05 04:47:17;;;;;;;5.47;4.20;;;18.00;99.90;;;;;;4964379;28;20520;-83
2022/08/05 04:49:43;;;;;;;7.18;4.18;;;18.00;99.90;;;;;;4952537;28;20108;-84
2022/08/05 04:52:09;;;;;;;10.20;4.55;;;18.00;99.90;;;;;;4980346;28;20019;-84
2022/08/05 04:54:35;;;;;;;9.38;4.47;;;18.00;99.90;;;;;;4985021;28;20062;-84
2022/08/05 04:57:08;;;;;;;7.45;4.80;;;18.00;99.90;;;;;;4962670;28;20026;-84
2022/08/05 04:59:34;;;;;;;8.55;4.88;;;18.00;99.90;;;;;;5000936;28;20030;-85
2022/08/05 05:02:00;;;;;;;9.65;5.05;;;18.00;99.90;;;;;;4968445;28;20124;-84
2022/08/05 05:04:26;;;;;;;7.82;4.75;;;17.90;99.90;;;;;;4997677;28;20088;-84
2022/08/05 05:06:52;;;;;;;9.98;5.50;;;17.90;99.90;;;;;;4990263;28;20047;-84
2022/08/05 05:09:18;;;;;;;10.73;5.28;;;17.90;99.90;;;;;;5021860;28;20072;-83
2022/08/05 05:11:47;;;;;;;10.73;5.57;;;17.90;99.90;;;;;;4977402;28;20074;-84
2022/08/05 05:14:13;;;;;;;9.90;4.97;;;17.90;99.90;;;;;;5009078;28;20052;-84
2022/08/05 05:16:39;;;;;;;12.38;5.85;;;18.00;99.90;;;;;;4992406;28;20054;-84
2022/08/05 05:19:05;;;;;;;10.57;5.32;;;18.00;99.90;;;;;;4971831;28;20050;-84
2022/08/05 05:21:31;;;;;;;11.43;6.32;;;18.00;99.90;;;;;;4971390;28;20068;-84
2022/08/05 05:23:57;;;;;;;6.65;5.38;;;18.00;99.90;;;;;;4964901;28;20046;-84
2022/08/05 05:26:23;;;;;;;9.38;6.35;;;17.90;99.90;;;;;;4969046;28;20498;-84
2022/08/05 05:28:49;;;;;;;8.52;5.60;;;18.00;99.90;;;;;;4977544;28;20050;-83
2022/08/05 05:31:16;;;;;;;9.63;5.35;;;18.00;99.90;;;;;;4977398;28;20571;-85
2022/08/05 05:33:42;;;;;;;8.95;5.80;;;18.10;99.90;;;;;;4977578;28;20041;-84
2022/08/05 05:36:08;;;;;;;9.00;5.95;;;18.00;99.90;;;;;;4974838;28;20041;-85
2022/08/05 05:38:34;;;;;;;9.52;5.70;;;18.10;99.90;;;;;;4945280;28;20203;-85
2022/08/05 05:41:00;;;;;;;9.07;4.82;;;18.10;99.90;;;;;;4987630;28;20121;-81
2022/08/05 05:43:26;;;;;;;9.40;4.88;;;18.20;99.90;;;;;;4986656;28;20576;-85
2022/08/05 05:45:52;;;;;;;10.90;5.43;;;18.10;99.90;;;;;;4971461;28;20034;-84
2022/08/05 05:48:18;;;;;;;8.25;5.57;;;18.20;99.90;;;;;;4969397;28;20544;-83
2022/08/05 05:50:45;;;;;;;10.35;5.63;;;18.20;99.90;;;;;;4971628;28;20095;-84
2022/08/05 05:53:12;;;;;;;9.43;6.13;;;18.20;99.90;;;;;;4978065;28;20121;-81
2022/08/05 05:55:38;;;;;;;10.93;6.00;;;18.10;99.90;;;;;;4981496;28;20456;-80
2022/08/05 05:58:04;;;;;;;75.03;67.18;;;18.20;99.90;;;;;;4995401;28;20505;-83
2022/08/05 06:00:30;;;;;;;22.73;17.17;;;18.20;99.90;;;;;;4997925;28;20050;-80
2022/08/05 06:02:56;;;;;;;11.07;6.75;;;18.20;99.90;;;;;;4982858;28;20050;-80
2022/08/05 06:05:23;;;;;;;7.68;5.75;;;18.40;99.90;;;;;;4951887;28;20084;-80
2022/08/05 06:07:49;;;;;;;10.38;5.57;;;18.40;99.90;;;;;;4966884;28;20185;-80
2022/08/05 06:10:15;;;;;;;8.50;5.55;;;18.40;99.90;;;;;;4965554;28;20053;-80
2022/08/05 06:12:42;;;;;;;7.97;4.65;;;18.50;99.90;;;;;;4951875;28;20045;-80
2022/08/05 06:15:08;;;;;;;6.85;4.75;;;18.60;99.90;;;;;;4981724;28;20037;-80
2022/08/05 06:17:35;;;;;;;6.50;4.97;;;18.80;99.90;;;;;;4968157;28;20053;-81
2022/08/05 06:20:02;;;;;;;9.55;5.47;;;19.00;99.90;;;;;;4951016;28;20075;-82
2022/08/05 06:22:33;;;;;;;7.03;4.72;;;19.10;99.90;;;;;;4984656;28;20057;-80
2022/08/05 06:25:00;;;;;;;8.98;4.65;;;19.20;99.90;;;;;;4996499;28;20054;-80
2022/08/05 06:27:26;;;;;;;6.32;4.90;;;19.20;99.90;;;;;;4998009;28;20107;-80
2022/08/05 06:29:52;;;;;;;8.73;4.68;;;19.10;99.90;;;;;;4982060;28;20598;-80
2022/08/05 06:32:18;;;;;;;6.85;3.70;;;19.10;99.90;;;;;;4985156;28;20041;-80
2022/08/05 06:34:45;;;;;;;6.18;4.70;;;19.00;99.90;;;;;;4969120;28;20105;-80
2022/08/05 06:37:11;;;;;;;7.75;4.03;;;19.00;99.90;;;;;;4965967;28;20052;-80
2022/08/05 06:39:38;;;;;;;5.85;3.65;;;19.00;99.90;;;;;;4979983;28;20053;-80
2022/08/05 06:42:04;;;;;;;6.72;3.78;;;19.00;99.90;;;;;;4978063;28;20053;-80
2022/08/05 06:44:31;;;;;;;6.82;3.67;;;19.00;99.90;;;;;;4947531;28;20120;-81
2022/08/05 06:46:57;;;;;;;7.97;4.20;;;19.00;99.90;;;;;;5000529;28;20050;-80
2022/08/05 06:49:24;;;;;;;5.50;3.45;;;18.90;99.90;;;;;;4964641;28;20080;-78
2022/08/05 06:51:50;;;;;;;10.13;6.45;;;19.00;99.90;;;;;;4995564;28;20125;-80
2022/08/05 06:54:16;;;;;;;10.73;4.88;;;19.20;99.90;;;;;;4949193;28;20985;-79
2022/08/05 06:56:43;;;;;;;16.17;13.52;;;19.10;99.90;;;;;;4980914;28;20054;-79
2022/08/05 06:59:13;;;;;;;7.18;4.32;;;19.10;99.90;;;;;;4964489;28;20525;-79
2022/08/05 07:01:39;;;;;;;5.47;3.75;;;19.30;99.90;;;;;;4979179;28;20058;-80
2022/08/05 07:04:05;;;;;;;8.65;3.90;;;19.40;99.90;;;;;;4948804;28;20490;-79
2022/08/05 07:06:31;;;;;;;7.53;3.95;;;19.40;99.90;;;;;;4967663;28;20061;-79
2022/08/05 07:08:58;;;;;;;6.72;4.05;;;19.50;99.90;;;;;;4964806;28;20054;-78
2022/08/05 07:11:27;;;;;;;9.63;3.97;;;19.60;99.90;;;;;;4964043;28;20498;-78
2022/08/05 07:16:50;;;;;;;5.05;3.20;;;19.80;99.90;;;;;;5003805;28;20056;-80
2022/08/05 07:19:20;;;;;;;6.75;3.80;;;19.80;99.90;;;;;;4946965;28;20153;-80
2022/08/05 07:21:48;;;;;;;5.72;3.17;;;19.90;99.90;;;;;;5003685;28;20084;-81
2022/08/05 07:24:17;;;;;;;4.20;2.70;;;20.00;99.90;;;;;;4999556;28;20088;-81
2022/08/05 07:26:44;;;;;;;4.72;2.60;;;20.00;99.90;;;;;;4988810;28;20454;-80
2022/08/05 07:29:13;;;;;;;6.68;3.00;;;20.00;99.90;;;;;;4972390;28;20041;-82
2022/08/05 07:31:40;;;;;;;3.85;2.20;;;20.10;99.90;;;;;;4966430;28;20053;-81
2022/08/05 07:34:06;;;;;;;3.67;2.30;;;20.10;99.90;;;;;;4996575;28;20060;-81
2022/08/05 07:36:32;;;;;;;4.38;1.88;;;20.20;99.90;;;;;;4964634;28;20061;-81
2022/08/05 07:39:00;;;;;;;4.22;1.63;;;20.40;99.90;;;;;;4962225;28;20803;-81
2022/08/05 07:41:27;;;;;;;4.47;1.77;;;20.50;99.90;;;;;;4978221;28;20065;-82
2022/08/05 07:43:55;;;;;;;3.10;1.40;;;20.70;99.90;;;;;;4997420;28;20489;-80
2022/08/05 07:46:21;;;;;;;4.47;1.70;;;20.70;99.90;;;;;;4998928;28;20057;-82
2022/08/05 07:48:48;;;;;;;5.60;1.73;;;21.10;99.90;;;;;;4981745;28;20038;-81
2022/08/05 07:51:16;;;;;;;4.65;1.50;;;21.30;99.90;;;;;;4983655;28;20104;-82
2022/08/05 07:53:45;;;;;;;2.47;1.15;;;21.60;99.90;;;;;;5001515;28;20074;-82
2022/08/05 07:56:11;;;;;;;4.22;1.50;;;21.90;99.90;;;;;;4986410;28;20057;-81
2022/08/05 07:58:37;;;;;;;5.05;1.80;;;22.10;99.90;;;;;;4951873;28;20080;-81
2022/08/05 08:01:03;;;;;;;3.83;1.48;;;22.40;99.90;;;;;;4970998;28;20101;-81
2022/08/05 08:03:30;;;;;;;3.13;1.67;;;22.80;99.90;;;;;;4983684;28;20046;-81
2022/08/05 08:05:56;;;;;;;4.90;1.15;;;23.40;99.90;;;;;;4984915;28;20537;-82
2022/08/05 08:08:23;;;;;;;3.00;1.08;;;23.80;99.90;;;;;;5002038;28;20053;-81
2022/08/05 08:10:49;;;;;;;3.97;1.33;;;23.90;99.90;;;;;;5000800;28;20911;-81
2022/08/05 08:13:15;;;;;;;3.30;0.90;;;23.90;99.90;;;;;;4984944;28;20037;-83
2022/08/05 08:15:41;;;;;;;3.38;1.33;;;23.70;99.90;;;;;;4950944;28;20618;-82
2022/08/05 08:18:08;;;;;;;2.67;0.82;;;23.30;99.90;;;;;;4971564;28;20049;-81
2022/08/05 08:20:34;;;;;;;4.13;1.15;;;23.10;99.90;;;;;;4970044;28;20061;-81
2022/08/05 08:23:01;;;;;;;2.33;0.90;;;22.70;99.90;;;;;;4983583;28;20129;-82
2022/08/05 08:25:28;;;;;;;3.67;1.10;;;22.70;99.90;;;;;;4938089;28;20631;-80
2022/08/05 08:27:54;;;;;;;3.40;1.13;;;22.40;99.90;;;;;;4986664;28;20522;-81
2022/08/05 08:30:21;;;;;;;4.63;1.20;;;22.30;99.90;;;;;;4985282;28;20503;-81
2022/08/05 08:32:47;;;;;;;2.30;0.80;;;22.50;99.90;;;;;;4963540;28;20061;-80
2022/08/05 08:35:14;;;;;;;3.30;1.10;;;22.70;99.90;;;;;;4985991;28;20049;-81
2022/08/05 08:37:40;;;;;;;2.67;1.08;;;23.20;99.90;;;;;;4979114;28;20046;-81
2022/08/05 08:40:07;;;;;;;2.08;0.85;;;23.50;99.90;;;;;;4985592;28;20053;-82
2022/08/05 08:42:33;;;;;;;5.07;0.90;;;23.30;99.90;;;;;;4984694;28;20050;-81
2022/08/05 08:44:59;;;;;;;3.63;1.00;;;23.10;99.90;;;;;;4968898;28;20406;-80
2022/08/05 08:47:27;;;;;;;3.17;0.90;;;23.10;99.90;;;;;;4954977;28;20045;-81
2022/08/05 08:49:55;;;;;;;4.07;1.20;;;23.00;99.90;;;;;;4970344;28;20042;-82
2022/08/05 08:52:34;;;;;;;4.18;1.60;;;22.90;99.90;;;;;;4991889;28;20148;-82
2022/08/05 08:55:02;;;;;;;3.70;1.38;;;22.70;99.90;;;;;;4966788;28;20038;-81
2022/08/05 08:57:28;;;;;;;4.63;1.38;;;22.60;99.90;;;;;;4999924;28;20057;-82
2022/08/05 08:59:55;;;;;;;3.00;1.17;;;22.50;99.90;;;;;;4968297;28;20128;-83
2022/08/05 09:02:22;;;;;;;6.05;3.63;;;22.70;99.90;;;;;;4980724;28;20045;-81
2022/08/05 09:04:48;;;;;;;8.88;1.65;;;22.90;99.90;;;;;;5001108;28;20054;-76
2022/08/05 09:07:15;;;;;;;6.75;5.95;;;22.80;99.90;;;;;;4958468;28;20601;-79
2022/08/05 09:09:42;;;;;;;16.92;14.52;;;23.20;99.90;;;;;;4966685;28;20126;-79
2022/08/05 09:12:09;;;;;;;8.07;5.75;;;23.50;99.90;;;;;;4947712;28;20047;-78
2022/08/05 09:14:35;;;;;;;4.03;1.15;;;23.70;99.90;;;;;;4956564;28;20136;-77
2022/08/05 09:17:05;;;;;;;3.85;0.90;;;23.60;99.90;;;;;;4947701;28;20858;-77
2022/08/05 09:19:32;;;;;;;3.28;1.80;;;23.60;99.90;;;;;;4963315;28;20047;-78
2022/08/05 09:21:58;;;;;;;4.40;1.25;;;24.20;99.90;;;;;;4956558;28;20413;-79
2022/08/05 09:24:24;;;;;;;3.28;0.88;;;24.50;99.90;;;;;;4963337;28;20094;-79
2022/08/05 09:26:52;;;;;;;2.95;0.50;;;25.00;99.90;;;;;;4962502;28;20046;-79
2022/08/05 09:29:18;;;;;;;2.78;1.25;;;25.10;99.90;;;;;;4963938;28;20046;-80
2022/08/05 09:32:01;;;;;;;1.85;0.73;;;24.60;96.80;;;;;;4979262;28;20051;-79
2022/08/05 09:34:45;;;;;;;3.97;1.10;;;24.50;96.40;;;;;;4947714;28;20566;-79
2022/08/05 09:37:22;;;;;;;1.88;0.75;;;24.20;97.30;;;;;;4958892;28;20042;-80
2022/08/05 09:39:48;;;;;;;4.20;0.68;;;24.30;98.60;;;;;;4967978;28;20547;-79
2022/08/05 09:42:17;;;;;;;3.75;0.60;;;24.40;97.80;;;;;;4975399;28;20042;-76
2022/08/05 09:44:45;;;;;;;2.58;0.85;;;23.70;90.60;;;;;;4968571;28;20046;-75
2022/08/05 09:47:24;;;;;;;2.28;0.40;;;23.70;91.80;;;;;;4994205;28;20521;-75
2022/08/05 09:49:53;;;;;;;2.42;0.73;;;23.80;91.10;;;;;;4959505;28;21485;-76
2022/08/05 09:52:27;;;;;;;2.65;1.52;;;23.80;92.50;;;;;;4990312;28;20715;-80
2022/08/05 09:55:09;;;;;;;3.30;2.22;;;24.40;93.30;;;;;;4943568;28;20158;-76
2022/08/05 09:57:38;;;;;;;7.30;5.20;;;25.10;91.90;;;;;;4975062;28;20821;-76
2022/08/05 10:00:12;;;;;;;3.38;0.82;;;25.60;89.80;;;;;;4961798;28;20903;-77
2022/08/05 10:02:47;;;;;;;3.85;1.88;;;26.00;66.00;;;;;;4972803;28;20043;-78
2022/08/05 10:05:17;;;;;;;19.75;3.13;;;26.20;67.10;;;;;;4976606;28;20055;-79
2022/08/05 10:07:51;;;;;;;4.75;0.70;;;27.00;69.70;;;;;;4958749;28;20542;-76
2022/08/05 10:10:26;;;;;;;2.97;0.68;;;27.10;65.20;;;;;;4982035;28;20039;-79
2022/08/05 10:12:55;;;;;;;10.35;1.80;;;26.60;63.60;;;;;;4995279;28;20387;-82
2022/08/05 10:15:26;;;;;;;4.72;0.90;;;26.60;62.90;;;;;;4929217;28;20812;-83
2022/08/05 10:18:04;;;;;;;4.03;0.63;;;26.30;62.10;;;;;;4963484;28;20447;-83
2022/08/05 10:20:36;;;;;;;1.35;0.50;;;26.70;65.90;;;;;;4962445;28;20058;-84
2022/08/05 10:23:03;;;;;;;1.92;0.60;;;26.00;62.00;;;;;;4962409;28;20053;-82
2022/08/05 10:25:29;;;;;;;3.35;0.45;;;25.60;60.00;;;;;;4963709;28;20051;-82
2022/08/05 10:27:57;;;;;;;3.08;0.50;;;25.70;60.10;;;;;;4974774;28;20129;-82
2022/08/05 10:30:23;;;;;;;2.50;0.70;;;26.40;61.10;;;;;;4979283;28;20044;-83
2022/08/05 10:32:52;;;;;;;2.42;0.50;;;26.60;58.00;;;;;;4978367;28;20046;-83
2022/08/05 10:35:18;;;;;;;2.53;0.45;;;26.40;58.30;;;;;;4978751;28;20046;-83
2022/08/05 10:37:46;;;;;;;1.48;0.40;;;27.20;58.10;;;;;;4959432;28;20046;-84
2022/08/05 10:40:26;;;;;;;1.83;0.30;;;27.20;56.20;;;;;;4960542;28;20057;-83
2022/08/05 10:42:55;;;;;;;2.22;0.52;;;27.40;53.70;;;;;;4973573;28;20133;-82
2022/08/05 10:45:26;;;;;;;4.68;1.15;;;27.60;56.00;;;;;;4929880;28;20124;-82
2022/08/05 10:47:53;;;;;;;14.57;13.20;;;27.90;53.80;;;;;;4974407;28;20104;-79
2022/08/05 10:50:19;;;;;;;3.22;2.33;;;28.00;53.70;;;;;;4977242;28;20613;-80
2022/08/05 10:52:55;;;;;;;2.78;1.05;;;27.80;52.70;;;;;;4956857;28;20294;-78
2022/08/05 10:55:23;;;;;;;3.55;1.30;;;27.80;51.50;;;;;;4960159;28;20046;-78
2022/08/05 10:58:09;;;;;;;2.08;0.57;;;27.60;48.40;;;;;;4993663;28;20046;-82
2022/08/05 11:00:36;;;;;;;11.13;10.02;;;27.10;46.10;;;;;;4972252;28;20058;-83
2022/08/05 11:03:05;;;;;;;4.75;4.20;;;27.10;48.20;;;;;;4926934;28;20145;-86
2022/08/05 11:05:33;;;;;;;1.98;0.38;;;27.10;48.00;;;;;;4964622;28;20446;-86
2022/08/05 11:08:04;;;;;;;1.15;0.40;;;26.90;46.80;;;;;;4993843;28;20054;-85
2022/08/05 11:10:33;;;;;;;0.82;0.20;;;27.00;45.80;;;;;;4983663;28;20058;-90
2022/08/05 11:13:00;;;;;;;1.00;0.28;;;26.70;46.00;;;;;;4965368;28;20046;-91
2022/08/05 11:15:33;;;;;;;3.53;0.40;;;27.10;46.30;;;;;;4949501;28;20034;-86
2022/08/05 11:18:24;;;;;;;1.80;0.43;;;26.80;47.00;;;;;;4964433;28;20065;-85
2022/08/05 11:20:51;;;;;;;2.00;0.28;;;27.40;46.70;;;;;;4980714;28;20129;-85
2022/08/05 11:23:35;;;;;;;2.53;1.38;;;27.60;46.00;;;;;;4947768;28;20413;-86
2022/08/05 11:26:04;;;;;;;3.22;1.70;;;27.80;42.20;;;;;;4966521;28;20272;-84
2022/08/05 11:28:33;;;;;;;1.48;0.30;;;28.40;42.80;;;;;;4979936;28;20056;-85
2022/08/05 11:31:02;;;;;;;3.72;1.33;;;28.00;41.80;;;;;;4979543;28;20042;-85
2022/08/05 11:33:32;;;;;;;1.25;0.40;;;28.30;42.70;;;;;;4933306;28;20054;-85
2022/08/05 11:36:04;;;;;;;0.30;0.20;;;28.30;40.00;;;;;;4960956;28;20041;-85
2022/08/05 11:38:43;;;;;;;1.17;0.20;;;28.10;40.20;;;;;;4948454;28;20049;-84
2022/08/05 11:41:22;;;;;;;2.10;0.35;;;28.10;41.00;;;;;;4961636;28;20658;-84
2022/08/05 11:43:54;;;;;;;2.10;0.93;;;27.70;40.50;;;;;;4960614;28;20051;-84
2022/08/05 11:46:33;;;;;;;1.88;0.63;;;27.60;40.80;;;;;;4962409;28;20050;-85
2022/08/05 11:49:00;;;;;;;1.50;0.40;;;26.70;42.40;;;;;;5012139;28;20072;-84
2022/08/05 11:51:28;;;;;;;2.38;0.30;;;26.70;42.40;;;;;;4979605;28;20099;-86
2022/08/05 11:53:55;;;;;;;2.63;0.80;;;26.40;42.90;;;;;;4981098;28;20042;-84
2022/08/05 11:56:22;;;;;;;1.27;0.30;;;26.40;44.00;;;;;;4977342;28;20046;-85
2022/08/05 11:58:50;;;;;;;1.70;0.38;;;26.10;44.00;;;;;;4930922;28;20058;-86
2022/08/05 12:01:21;;;;;;;2.50;0.40;;;26.10;44.70;;;;;;4932422;28;20388;-85
2022/08/05 12:03:50;;;;;;;2.00;0.47;;;25.90;45.20;;;;;;4981761;28;20042;-85
2022/08/05 12:06:17;;;;;;;2.90;0.55;;;25.70;44.50;;;;;;4968123;28;20043;-86
2022/08/05 12:08:46;;;;;;;3.05;0.40;;;25.60;45.80;;;;;;4946378;28;20062;-83
2022/08/05 12:11:19;;;;;;;4.10;1.15;;;25.60;46.20;;;;;;4981819;28;20073;-80
2022/08/05 12:13:55;;;;;;;2.25;0.40;;;25.70;47.20;;;;;;4981165;28;20450;-81
2022/08/05 12:16:22;;;;;;;2.40;0.75;;;26.00;47.40;;;;;;4980122;28;20071;-81
2022/08/05 12:18:50;;;;;;;2.47;0.35;;;27.00;48.00;;;;;;5011616;28;20071;-81
2022/08/05 12:21:19;;;;;;;2.30;0.30;;;27.40;48.00;;;;;;4946072;28;20038;-80
2022/08/05 12:24:13;;;;;;;3.63;0.73;;;27.20;46.50;;;;;;4978258;28;20050;-79
2022/08/05 12:26:51;;;;;;;1.98;0.50;;;26.90;48.20;;;;;;4975990;28;20051;-79
2022/08/05 12:29:20;;;;;;;1.50;0.30;;;27.30;46.70;;;;;;4977225;28;20061;-80
2022/08/05 12:32:05;;;;;;;2.22;0.50;;;26.70;46.80;;;;;;4982551;28;20042;-79
2022/08/05 12:34:37;;;;;;;0.82;0.30;;;26.70;47.60;;;;;;4959230;28;20050;-80
2022/08/05 12:37:11;;;;;;;1.85;0.40;;;27.00;48.50;;;;;;4975220;28;20058;-80
2022/08/05 12:39:39;;;;;;;1.02;0.38;;;26.60;47.40;;;;;;4992031;28;22075;-79
2022/08/05 12:42:16;;;;;;;1.38;0.20;;;26.60;48.00;;;;;;4977741;28;20057;-79
2022/08/05 12:44:44;;;;;;;1.08;0.40;;;25.90;48.90;;;;;;4976989;28;20405;-78
2022/08/05 12:47:12;;;;;;;3.45;0.50;;;25.80;49.60;;;;;;4963281;28;22098;-79
2022/08/05 12:49:49;;;;;;;2.30;0.40;;;25.90;50.10;;;;;;4962364;28;20046;-79
2022/08/05 12:52:17;;;;;;;2.38;0.38;;;25.90;51.10;;;;;;4977424;28;20742;-79
2022/08/05 12:54:49;;;;;;;1.77;0.32;;;25.30;50.50;;;;;;4993600;28;20133;-79
2022/08/05 12:57:16;;;;;;;0.68;0.30;;;25.50;51.00;;;;;;4961125;28;20518;-80